Time;durP1;ratioP1;P1;durP2;ratioP2;P2;SDS_P1;SDS_P2;PMS_P1;PMS_P2;Temp;Humidity;BMP_temperature;BMP_pressure;BME280_temperature;BME280_humidity;BME280_pressure;Samples;Min_cycle;Max_cycle;Signal;HPM_P1;HPM_P2
2021/09/11 00:01:03;;;;;;;14.63;12.23;;;18.90;99.90;;;;;;5068982;28;20035;-46
2021/09/11 00:03:30;;;;;;;13.85;11.55;;;18.90;99.90;;;;;;5068968;28;20028;-46
2021/09/11 00:05:55;;;;;;;18.15;12.32;;;18.90;99.90;;;;;;5061035;28;20027;-47
2021/09/11 00:08:21;;;;;;;16.98;12.63;;;18.90;99.90;;;;;;5061673;28;20382;-49
2021/09/11 00:10:46;;;;;;;16.45;13.57;;;18.90;99.90;;;;;;5068687;28;20013;-48
2021/09/11 00:13:12;;;;;;;15.20;12.35;;;18.90;99.90;;;;;;5067890;28;20449;-46
2021/09/11 00:15:37;;;;;;;13.73;11.88;;;18.80;99.90;;;;;;5069147;28;20020;-47
2021/09/11 00:18:04;;;;;;;15.18;11.60;;;18.90;99.90;;;;;;5068057;28;20029;-46
2021/09/11 00:20:31;;;;;;;14.88;13.13;;;18.90;99.90;;;;;;5052615;28;20032;-46
2021/09/11 00:22:57;;;;;;;15.95;11.93;;;18.90;99.90;;;;;;5037896;28;20114;-47
2021/09/11 00:25:23;;;;;;;17.58;12.85;;;18.90;99.90;;;;;;5038375;28;20328;-48
2021/09/11 00:27:49;;;;;;;17.98;12.80;;;18.80;99.90;;;;;;5028066;28;20022;-47
2021/09/11 00:30:15;;;;;;;17.98;12.38;;;18.80;99.90;;;;;;5027527;28;20391;-46
2021/09/11 00:32:43;;;;;;;15.50;11.57;;;18.80;99.90;;;;;;5028871;28;20040;-47
2021/09/11 00:35:16;;;;;;;19.27;13.43;;;18.80;99.90;;;;;;5035379;28;20138;-48
2021/09/11 00:37:43;;;;;;;16.83;12.27;;;18.80;99.90;;;;;;5059735;28;20506;-47
2021/09/11 00:40:11;;;;;;;16.17;11.90;;;18.80;99.90;;;;;;5068440;28;20036;-47
2021/09/11 00:42:37;;;;;;;15.48;12.40;;;18.80;99.90;;;;;;5068666;28;20032;-46
2021/09/11 00:45:04;;;;;;;15.43;12.40;;;18.80;99.90;;;;;;5068502;28;20095;-48
2021/09/11 00:47:29;;;;;;;15.13;12.23;;;18.80;99.90;;;;;;5067625;28;20085;-46
2021/09/11 00:49:55;;;;;;;14.52;12.07;;;18.80;99.90;;;;;;5068286;28;20032;-46
2021/09/11 00:52:21;;;;;;;16.88;12.43;;;18.80;99.90;;;;;;5068435;28;20074;-46
2021/09/11 00:54:47;;;;;;;15.10;11.88;;;18.80;99.90;;;;;;5068433;28;20075;-47
2021/09/11 00:57:13;;;;;;;14.32;11.20;;;18.80;99.90;;;;;;5067815;28;20036;-46
2021/09/11 00:59:38;;;;;;;15.40;12.10;;;18.80;99.90;;;;;;5068188;28;20530;-48
2021/09/11 01:02:04;;;;;;;14.10;11.00;;;18.80;99.90;;;;;;5067922;28;20081;-47
2021/09/11 01:04:30;;;;;;;15.70;12.13;;;18.80;99.90;;;;;;5066239;28;20074;-45
2021/09/11 01:06:57;;;;;;;12.48;11.18;;;18.80;99.90;;;;;;5046602;28;20041;-45
2021/09/11 01:09:22;;;;;;;13.95;11.18;;;18.80;99.90;;;;;;5058478;28;20029;-46
2021/09/11 01:11:49;;;;;;;17.67;11.93;;;18.80;99.90;;;;;;5068509;28;20050;-47
2021/09/11 01:14:15;;;;;;;13.38;11.63;;;18.80;99.90;;;;;;5068284;28;20395;-46
2021/09/11 01:16:40;;;;;;;14.40;11.93;;;18.80;99.90;;;;;;5067569;28;20029;-49
2021/09/11 01:19:06;;;;;;;15.63;12.40;;;18.80;99.90;;;;;;5067859;28;20070;-46
2021/09/11 01:21:31;;;;;;;15.05;12.18;;;18.70;99.90;;;;;;5067852;28;20025;-46
2021/09/11 01:23:57;;;;;;;13.68;10.73;;;18.80;99.90;;;;;;5070425;28;20089;-45
2021/09/11 01:26:22;;;;;;;15.93;11.05;;;18.70;99.90;;;;;;5071327;28;20040;-46
2021/09/11 01:28:48;;;;;;;16.65;13.57;;;18.70;99.90;;;;;;5072009;28;20104;-45
2021/09/11 01:31:13;;;;;;;18.52;12.30;;;18.70;99.90;;;;;;5071777;28;20494;-46
2021/09/11 01:33:39;;;;;;;15.98;12.32;;;18.70;99.90;;;;;;5072194;28;20112;-47
2021/09/11 01:36:04;;;;;;;16.85;12.48;;;18.70;99.90;;;;;;5068790;28;20036;-47
2021/09/11 01:38:30;;;;;;;15.18;11.27;;;18.70;99.90;;;;;;5054543;28;20475;-46
2021/09/11 01:40:55;;;;;;;19.30;13.98;;;18.70;99.90;;;;;;5070072;28;20506;-46
2021/09/11 01:43:29;;;;;;;15.02;12.20;;;18.70;99.90;;;;;;5071763;28;20382;-50
2021/09/11 01:45:54;;;;;;;15.18;12.32;;;18.70;99.90;;;;;;5071383;28;20115;-47
2021/09/11 01:48:20;;;;;;;15.30;12.60;;;18.70;99.90;;;;;;5069980;28;20099;-48
2021/09/11 01:50:45;;;;;;;16.17;13.32;;;18.60;99.90;;;;;;5071633;28;20048;-49
2021/09/11 01:53:11;;;;;;;19.40;14.52;;;18.60;99.90;;;;;;5071616;28;20455;-49
2021/09/11 01:55:36;;;;;;;18.98;13.02;;;18.60;99.90;;;;;;5071480;28;20028;-50
2021/09/11 01:58:02;;;;;;;14.25;11.95;;;18.60;99.90;;;;;;5069476;28;20363;-49
2021/09/11 02:00:27;;;;;;;17.30;12.45;;;18.60;99.90;;;;;;5071234;28;20063;-47
2021/09/11 02:02:53;;;;;;;15.13;11.65;;;18.60;99.90;;;;;;5071396;28;20493;-49
2021/09/11 02:05:18;;;;;;;18.27;12.63;;;18.60;99.90;;;;;;5071129;28;20475;-50
2021/09/11 02:07:44;;;;;;;21.45;14.13;;;18.60;99.90;;;;;;5056622;28;20032;-50
2021/09/11 02:10:11;;;;;;;14.85;12.18;;;18.60;99.90;;;;;;5061598;28;20406;-47
2021/09/11 02:12:37;;;;;;;14.98;12.10;;;18.60;99.90;;;;;;5070940;28;20070;-49
2021/09/11 02:15:03;;;;;;;19.25;12.80;;;18.60;99.90;;;;;;5071095;28;20021;-48
2021/09/11 02:17:29;;;;;;;15.95;12.32;;;18.60;99.90;;;;;;5069138;28;20025;-50
2021/09/11 02:19:55;;;;;;;15.82;12.75;;;18.60;99.90;;;;;;5070899;28;20029;-47
2021/09/11 02:22:20;;;;;;;16.45;13.45;;;18.50;99.90;;;;;;5069342;28;20036;-47
2021/09/11 02:24:45;;;;;;;18.33;13.93;;;18.50;99.90;;;;;;5071165;28;20025;-46
2021/09/11 02:27:11;;;;;;;16.65;13.52;;;18.50;99.90;;;;;;5069058;28;20032;-48
2021/09/11 02:29:36;;;;;;;17.25;13.48;;;18.60;99.90;;;;;;5070906;28;20120;-47
2021/09/11 02:32:04;;;;;;;15.10;12.18;;;18.50;99.90;;;;;;5071139;28;20239;-46
2021/09/11 02:34:30;;;;;;;18.75;14.57;;;18.50;99.90;;;;;;5069750;28;20104;-48
2021/09/11 02:36:56;;;;;;;15.57;12.13;;;18.50;99.90;;;;;;5056186;28;20087;-48
2021/09/11 02:39:21;;;;;;;22.90;14.27;;;18.50;99.90;;;;;;5070690;28;20234;-46
2021/09/11 02:41:48;;;;;;;17.15;13.57;;;18.50;99.90;;;;;;5070731;28;20390;-52
2021/09/11 02:44:13;;;;;;;18.52;14.20;;;18.50;99.90;;;;;;5062697;28;20064;-47
2021/09/11 02:46:39;;;;;;;14.25;11.18;;;18.50;99.90;;;;;;5039831;28;20570;-47
2021/09/11 02:49:04;;;;;;;15.43;11.93;;;18.50;99.90;;;;;;5039264;28;20029;-47
2021/09/11 02:51:30;;;;;;;12.27;10.98;;;18.40;99.90;;;;;;5041569;28;20025;-47
2021/09/11 02:53:56;;;;;;;18.85;14.32;;;18.50;99.90;;;;;;5037534;28;20017;-47
2021/09/11 02:56:22;;;;;;;14.90;12.65;;;18.50;99.90;;;;;;5039903;28;20049;-48
2021/09/11 02:58:47;;;;;;;17.83;12.82;;;18.40;99.90;;;;;;5039866;28;20021;-48
2021/09/11 03:01:13;;;;;;;16.45;13.48;;;18.50;99.90;;;;;;5039771;28;20483;-52
2021/09/11 03:03:39;;;;;;;18.60;13.48;;;18.40;99.90;;;;;;5038227;28;20028;-48
2021/09/11 03:06:04;;;;;;;18.40;13.60;;;18.40;99.90;;;;;;5037364;28;20043;-49
2021/09/11 03:08:30;;;;;;;16.42;13.65;;;18.40;99.90;;;;;;5040502;28;20021;-55
2021/09/11 03:10:56;;;;;;;15.63;12.90;;;18.40;99.90;;;;;;5042460;28;20029;-49
2021/09/11 03:13:22;;;;;;;22.10;15.20;;;18.40;99.90;;;;;;5040121;28;20234;-49
2021/09/11 03:15:47;;;;;;;19.50;15.30;;;18.40;99.90;;;;;;5038040;28;20462;-50
2021/09/11 03:18:13;;;;;;;21.88;15.45;;;18.40;99.90;;;;;;5039817;28;20538;-49
2021/09/11 03:20:39;;;;;;;18.90;14.02;;;18.30;99.90;;;;;;5040344;28;20028;-47
2021/09/11 03:23:05;;;;;;;17.58;14.02;;;18.30;99.90;;;;;;5039379;28;20106;-48
2021/09/11 03:25:31;;;;;;;22.83;16.20;;;18.30;99.90;;;;;;5038690;28;20027;-47
2021/09/11 03:27:57;;;;;;;18.02;14.60;;;18.40;99.90;;;;;;5040071;28;20029;-49
2021/09/11 03:30:23;;;;;;;20.85;15.23;;;18.30;99.90;;;;;;5040167;28;20485;-48
2021/09/11 03:32:48;;;;;;;18.70;14.40;;;18.30;99.90;;;;;;5039827;28;20048;-50
2021/09/11 03:35:14;;;;;;;17.50;14.60;;;18.20;99.90;;;;;;5041109;28;20347;-49
2021/09/11 03:37:39;;;;;;;21.13;14.77;;;18.20;99.90;;;;;;5042719;28;20060;-50
2021/09/11 03:40:06;;;;;;;25.17;16.80;;;18.20;99.90;;;;;;5041644;28;20033;-49
2021/09/11 03:42:31;;;;;;;20.30;14.73;;;18.20;99.90;;;;;;5041455;28;20041;-49
2021/09/11 03:44:57;;;;;;;21.52;16.83;;;18.20;99.90;;;;;;5035518;28;20033;-50
2021/09/11 03:47:22;;;;;;;22.92;16.58;;;18.20;99.90;;;;;;5029097;28;20040;-50
2021/09/11 03:49:48;;;;;;;29.25;17.48;;;18.20;99.90;;;;;;5047893;28;20473;-47
2021/09/11 03:52:13;;;;;;;23.55;18.17;;;18.20;99.90;;;;;;5044451;28;20028;-47
2021/09/11 03:54:39;;;;;;;25.45;17.85;;;18.10;99.90;;;;;;5040739;28;20430;-47
2021/09/11 03:57:05;;;;;;;23.25;19.00;;;18.20;99.90;;;;;;5043720;28;20063;-47
2021/09/11 03:59:30;;;;;;;22.30;17.42;;;18.10;99.90;;;;;;5035551;28;20647;-47
2021/09/11 04:01:56;;;;;;;24.48;17.75;;;18.10;99.90;;;;;;5029719;28;20025;-47
2021/09/11 04:04:22;;;;;;;25.95;19.73;;;18.10;99.90;;;;;;5029033;28;20072;-47
2021/09/11 04:06:47;;;;;;;25.00;19.60;;;18.10;99.90;;;;;;5028907;28;20017;-48
2021/09/11 04:09:13;;;;;;;23.00;18.23;;;18.10;99.90;;;;;;5060722;28;20020;-47
2021/09/11 04:11:38;;;;;;;22.92;17.15;;;18.10;99.90;;;;;;5067747;28;20185;-49
2021/09/11 04:14:04;;;;;;;21.10;16.20;;;18.10;99.90;;;;;;5069084;28;20131;-47
2021/09/11 04:16:29;;;;;;;22.55;17.17;;;18.00;99.90;;;;;;5068122;28;20051;-49
2021/09/11 04:18:55;;;;;;;21.02;17.27;;;18.00;99.90;;;;;;5068743;28;20060;-46
2021/09/11 04:21:20;;;;;;;23.23;16.23;;;18.00;99.90;;;;;;5069080;28;20406;-47
2021/09/11 04:23:46;;;;;;;22.45;15.32;;;18.00;99.90;;;;;;5068767;28;20033;-47
2021/09/11 04:26:11;;;;;;;26.48;18.23;;;18.00;99.90;;;;;;5068535;28;20673;-48
2021/09/11 04:28:37;;;;;;;22.73;17.38;;;17.90;99.90;;;;;;5068075;28;20021;-49
2021/09/11 04:31:03;;;;;;;25.08;15.90;;;17.90;99.90;;;;;;5068711;28;20247;-48
2021/09/11 04:33:29;;;;;;;24.50;18.95;;;17.90;99.90;;;;;;5068703;28;20068;-47
2021/09/11 04:35:54;;;;;;;27.40;18.85;;;17.90;99.90;;;;;;5068435;28;20077;-47
2021/09/11 04:38:20;;;;;;;26.83;16.67;;;17.90;99.90;;;;;;5052716;28;20458;-47
2021/09/11 04:40:45;;;;;;;21.42;17.27;;;17.90;99.90;;;;;;5049354;28;20036;-48
2021/09/11 04:43:11;;;;;;;19.23;15.55;;;17.90;99.90;;;;;;5034220;28;20100;-47
2021/09/11 04:45:36;;;;;;;24.50;17.02;;;17.90;99.90;;;;;;5039093;28;20112;-48
2021/09/11 04:48:02;;;;;;;22.80;17.95;;;17.90;99.90;;;;;;5036258;28;20441;-47
2021/09/11 04:50:27;;;;;;;26.67;17.38;;;17.90;99.90;;;;;;5038838;28;20028;-49
2021/09/11 04:52:53;;;;;;;19.48;15.65;;;17.90;99.90;;;;;;5039079;28;20360;-49
2021/09/11 04:55:18;;;;;;;24.67;16.85;;;17.90;99.90;;;;;;5035421;28;20026;-47
2021/09/11 04:57:44;;;;;;;24.17;17.63;;;17.90;99.90;;;;;;5035940;28;20104;-49
2021/09/11 05:00:10;;;;;;;23.92;17.20;;;18.00;99.90;;;;;;5038847;28;20052;-47
2021/09/11 05:02:36;;;;;;;20.75;15.60;;;18.00;99.90;;;;;;5040522;28;20029;-47
2021/09/11 05:05:01;;;;;;;21.83;16.50;;;18.00;99.90;;;;;;5043986;28;20080;-47
2021/09/11 05:07:27;;;;;;;21.67;16.27;;;18.00;99.90;;;;;;5046246;28;20032;-47
2021/09/11 05:09:52;;;;;;;28.15;16.30;;;18.00;99.90;;;;;;5040730;28;20297;-47
2021/09/11 05:12:18;;;;;;;25.25;16.17;;;18.00;99.90;;;;;;5041624;28;20494;-48
2021/09/11 05:14:44;;;;;;;20.60;14.80;;;18.00;99.90;;;;;;5040440;28;20103;-47
2021/09/11 05:17:09;;;;;;;19.67;15.52;;;18.00;99.90;;;;;;5041617;28;20033;-48
2021/09/11 05:19:35;;;;;;;15.75;13.07;;;18.00;99.90;;;;;;5044136;28;20060;-47
2021/09/11 05:22:00;;;;;;;23.52;16.55;;;18.00;99.90;;;;;;5040978;28;20116;-47
2021/09/11 05:24:26;;;;;;;18.77;15.50;;;18.00;99.90;;;;;;5043735;28;20430;-47
2021/09/11 05:26:51;;;;;;;18.20;13.95;;;18.00;99.90;;;;;;5043515;28;20029;-49
2021/09/11 05:29:17;;;;;;;18.65;12.93;;;18.00;99.90;;;;;;5041595;28;20021;-47
2021/09/11 05:31:43;;;;;;;15.60;13.23;;;18.00;99.90;;;;;;5039395;28;20048;-47
2021/09/11 05:34:08;;;;;;;25.77;15.68;;;18.00;99.90;;;;;;5043096;28;20449;-47
2021/09/11 05:36:34;;;;;;;15.18;13.40;;;18.00;99.90;;;;;;5042755;28;20041;-47
2021/09/11 05:39:00;;;;;;;22.83;16.75;;;18.00;99.90;;;;;;5046371;28;20083;-47
2021/09/11 05:41:26;;;;;;;18.35;15.07;;;17.90;99.90;;;;;;5042915;28;20060;-47
2021/09/11 05:43:51;;;;;;;18.40;14.70;;;17.90;99.90;;;;;;5038301;28;20061;-48
2021/09/11 05:46:18;;;;;;;22.23;16.65;;;17.90;99.90;;;;;;5040795;28;20030;-50
2021/09/11 05:48:43;;;;;;;20.55;16.90;;;17.90;99.90;;;;;;5044996;28;20078;-47
2021/09/11 05:51:08;;;;;;;26.15;17.35;;;17.90;99.90;;;;;;5045807;28;20029;-47
2021/09/11 05:53:34;;;;;;;23.25;15.70;;;17.90;99.90;;;;;;5045478;28;20025;-48
2021/09/11 05:56:00;;;;;;;24.33;16.58;;;17.90;99.90;;;;;;5044654;28;20025;-47
2021/09/11 05:58:25;;;;;;;21.58;16.40;;;17.90;99.90;;;;;;5040482;28;20029;-47
2021/09/11 06:00:51;;;;;;;22.23;15.98;;;17.80;99.90;;;;;;5035285;28;20037;-47
2021/09/11 06:03:16;;;;;;;21.05;15.88;;;17.80;99.90;;;;;;5033281;28;20060;-47
2021/09/11 06:05:42;;;;;;;17.83;14.20;;;17.80;99.90;;;;;;5037918;28;20026;-46
2021/09/11 06:08:07;;;;;;;21.25;14.07;;;17.80;99.90;;;;;;5061799;28;20020;-47
2021/09/11 06:10:33;;;;;;;17.60;12.35;;;17.80;99.90;;;;;;5063223;28;20022;-47
2021/09/11 06:12:59;;;;;;;17.65;13.90;;;17.80;99.90;;;;;;5042315;28;20040;-48
2021/09/11 06:15:25;;;;;;;22.83;15.60;;;17.80;99.90;;;;;;5037103;28;20684;-47
2021/09/11 06:17:51;;;;;;;24.27;16.33;;;17.80;99.90;;;;;;5032369;28;20605;-47
2021/09/11 06:20:18;;;;;;;18.00;14.05;;;17.80;99.90;;;;;;5062054;28;20564;-47
2021/09/11 06:22:44;;;;;;;19.38;14.77;;;17.80;99.90;;;;;;5053014;28;20016;-47
2021/09/11 06:25:13;;;;;;;15.00;12.57;;;17.90;99.90;;;;;;5040351;28;20059;-46
2021/09/11 06:27:40;;;;;;;22.30;14.00;;;17.90;99.90;;;;;;5050285;28;20100;-46
2021/09/11 06:30:10;;;;;;;20.02;14.20;;;17.90;99.90;;;;;;5061477;28;20106;-46
2021/09/11 06:32:35;;;;;;;21.33;16.23;;;17.90;99.90;;;;;;5070394;28;20111;-46
2021/09/11 06:35:05;;;;;;;16.90;14.02;;;18.00;99.90;;;;;;5070915;28;20445;-47
2021/09/11 06:37:31;;;;;;;22.83;15.95;;;18.00;99.90;;;;;;5069747;28;20038;-48
2021/09/11 06:39:56;;;;;;;16.00;13.00;;;18.00;99.90;;;;;;5070550;28;20138;-47
2021/09/11 06:42:23;;;;;;;17.45;12.55;;;18.00;99.90;;;;;;5070405;28;20111;-47
2021/09/11 06:44:49;;;;;;;20.00;14.18;;;18.10;99.90;;;;;;5070609;28;20385;-46
2021/09/11 06:47:15;;;;;;;13.82;12.05;;;18.10;99.90;;;;;;5054709;28;20111;-46
2021/09/11 06:49:40;;;;;;;18.02;13.48;;;18.30;99.90;;;;;;5050022;28;20032;-47
2021/09/11 06:52:09;;;;;;;16.70;13.18;;;18.40;99.90;;;;;;5041940;28;20025;-47
2021/09/11 06:54:34;;;;;;;17.23;13.27;;;18.50;99.90;;;;;;5035961;28;20364;-47
2021/09/11 06:57:01;;;;;;;15.45;12.02;;;18.60;99.90;;;;;;5035909;28;20060;-49
2021/09/11 06:59:26;;;;;;;18.33;12.90;;;18.70;99.90;;;;;;5045987;28;20302;-48
2021/09/11 07:01:52;;;;;;;15.30;12.88;;;18.70;99.90;;;;;;5031433;28;20032;-47
2021/09/11 07:04:17;;;;;;;19.60;13.73;;;18.80;99.90;;;;;;5042569;28;20033;-47
2021/09/11 07:06:43;;;;;;;15.05;12.52;;;18.90;99.90;;;;;;5045597;28;20025;-47
2021/09/11 07:09:08;;;;;;;14.43;11.48;;;19.00;99.90;;;;;;5058356;28;20100;-47
2021/09/11 07:11:34;;;;;;;20.10;12.18;;;19.10;99.90;;;;;;5050082;28;20021;-47
2021/09/11 07:13:59;;;;;;;15.88;11.10;;;19.20;99.90;;;;;;5049925;28;20039;-47
2021/09/11 07:16:25;;;;;;;15.57;11.00;;;19.30;99.90;;;;;;5049187;28;20040;-47
2021/09/11 07:18:50;;;;;;;14.80;10.18;;;19.40;99.90;;;;;;5049877;28;20490;-46
2021/09/11 07:21:16;;;;;;;16.40;9.25;;;19.50;99.90;;;;;;5036743;28;20033;-48
2021/09/11 07:23:41;;;;;;;14.15;10.00;;;19.60;99.90;;;;;;5033459;28;20033;-47
2021/09/11 07:26:07;;;;;;;13.38;9.73;;;19.70;99.90;;;;;;5029816;28;20033;-46
2021/09/11 07:28:32;;;;;;;13.10;9.10;;;19.70;99.90;;;;;;5029318;28;20053;-46
2021/09/11 07:30:58;;;;;;;11.27;8.82;;;19.80;99.90;;;;;;5021937;28;20025;-48
2021/09/11 07:33:23;;;;;;;11.48;9.57;;;19.90;99.90;;;;;;5043235;28;20024;-46
2021/09/11 07:35:49;;;;;;;14.52;8.80;;;20.00;99.90;;;;;;5063424;28;20025;-46
2021/09/11 07:38:15;;;;;;;11.10;7.90;;;20.00;99.90;;;;;;5039686;28;20467;-47
2021/09/11 07:40:42;;;;;;;10.38;8.02;;;20.10;99.90;;;;;;5052869;28;20041;-48
2021/09/11 07:43:09;;;;;;;9.60;7.30;;;20.00;99.90;;;;;;5067043;28;20016;-47
2021/09/11 07:45:39;;;;;;;8.75;7.13;;;20.00;99.90;;;;;;5033634;28;20475;-47
2021/09/11 07:48:06;;;;;;;9.20;7.03;;;19.90;99.90;;;;;;5037698;28;20115;-47
2021/09/11 07:50:31;;;;;;;8.60;7.03;;;19.90;99.90;;;;;;5060467;28;20371;-49
2021/09/11 07:52:57;;;;;;;10.60;7.38;;;19.90;99.90;;;;;;5068105;28;20287;-50
2021/09/11 07:55:23;;;;;;;9.30;7.28;;;19.90;99.90;;;;;;5063797;28;20064;-47
2021/09/11 07:57:49;;;;;;;7.43;6.63;;;20.00;99.90;;;;;;5058166;28;20149;-47
2021/09/11 08:00:17;;;;;;;9.02;7.38;;;20.10;99.90;;;;;;5048519;28;20491;-48
2021/09/11 08:02:43;;;;;;;8.38;6.20;;;20.10;99.90;;;;;;5046375;28;20083;-47
2021/09/11 08:05:08;;;;;;;9.75;6.78;;;20.20;99.90;;;;;;5048096;28;20028;-47
2021/09/11 08:07:40;;;;;;;9.52;6.45;;;20.30;99.90;;;;;;5051142;28;20428;-47
2021/09/11 08:10:06;;;;;;;8.15;6.93;;;20.40;99.90;;;;;;5059880;28;20024;-48
2021/09/11 08:12:32;;;;;;;7.60;6.03;;;20.40;99.90;;;;;;5067456;28;20097;-47
2021/09/11 08:14:58;;;;;;;11.30;7.78;;;20.40;99.90;;;;;;5037397;28;20033;-47
2021/09/11 08:17:24;;;;;;;9.32;7.55;;;20.30;99.90;;;;;;5027314;28;20418;-47
2021/09/11 08:19:50;;;;;;;8.60;6.95;;;20.20;99.90;;;;;;5027644;28;20037;-47
2021/09/11 08:22:16;;;;;;;9.85;8.20;;;20.20;99.90;;;;;;5028208;28;20116;-46
2021/09/11 08:24:41;;;;;;;8.93;6.82;;;20.10;99.90;;;;;;5028111;28;20480;-47
2021/09/11 08:27:07;;;;;;;9.18;7.60;;;20.10;99.90;;;;;;5027680;28;20139;-47
2021/09/11 08:29:35;;;;;;;13.43;9.07;;;20.10;99.90;;;;;;5037631;28;20075;-47
2021/09/11 08:32:00;;;;;;;14.00;10.68;;;20.10;99.90;;;;;;5036290;28;20481;-46
2021/09/11 08:34:26;;;;;;;16.45;11.43;;;20.10;99.90;;;;;;5037490;28;20040;-46
2021/09/11 08:36:51;;;;;;;16.33;11.45;;;20.40;99.90;;;;;;5038715;28;20474;-47
2021/09/11 08:39:17;;;;;;;12.65;10.05;;;20.60;99.90;;;;;;5046305;28;20582;-47
2021/09/11 08:41:43;;;;;;;12.52;9.80;;;20.70;99.90;;;;;;5028487;28;20032;-48
2021/09/11 08:44:10;;;;;;;12.52;9.55;;;21.10;99.90;;;;;;5049808;28;20394;-47
2021/09/11 08:46:37;;;;;;;14.98;10.15;;;21.30;99.90;;;;;;5067008;28;20056;-47
2021/09/11 08:49:03;;;;;;;13.63;9.38;;;21.40;99.90;;;;;;5067498;28;20017;-47
2021/09/11 08:51:33;;;;;;;12.05;9.50;;;21.30;99.90;;;;;;5066504;28;20036;-47
2021/09/11 08:53:58;;;;;;;11.70;9.07;;;21.20;99.90;;;;;;5066038;28;20029;-47
2021/09/11 08:56:24;;;;;;;12.50;10.20;;;21.30;99.90;;;;;;5047010;28;20040;-50
2021/09/11 08:59:09;;;;;;;15.93;11.95;;;21.30;99.90;;;;;;5046420;28;20029;-50
2021/09/11 09:01:35;;;;;;;15.90;11.45;;;21.30;99.90;;;;;;5027563;28;20080;-47
2021/09/11 09:04:01;;;;;;;16.88;12.85;;;21.40;99.90;;;;;;5027375;28;20507;-50
2021/09/11 09:06:29;;;;;;;17.15;12.57;;;21.40;99.90;;;;;;5025648;28;20537;-47
2021/09/11 09:08:55;;;;;;;16.77;13.00;;;21.30;99.90;;;;;;5052736;28;20025;-49
2021/09/11 09:11:24;;;;;;;15.82;11.48;;;21.40;99.90;;;;;;5067291;28;20028;-48
2021/09/11 09:14:06;;;;;;;15.85;12.38;;;21.80;99.90;;;;;;5059635;28;20029;-47
2021/09/11 09:16:40;;;;;;;13.88;11.27;;;22.90;99.90;;;;;;5046687;28;20021;-48
2021/09/11 09:19:17;;;;;;;17.10;12.98;;;24.50;99.90;;;;;;5047250;28;20450;-48
2021/09/11 09:21:44;;;;;;;13.00;10.18;;;25.20;99.90;;;;;;5046982;28;20029;-47
2021/09/11 09:24:11;;;;;;;11.82;9.88;;;26.40;99.90;;;;;;5045295;28;20494;-48
2021/09/11 09:26:50;;;;;;;13.90;10.98;;;27.20;99.90;;;;;;5046582;28;20433;-49
2021/09/11 09:29:17;;;;;;;15.63;9.23;;;28.10;99.20;;;;;;5047109;28;20090;-48
2021/09/11 09:31:44;;;;;;;10.85;8.98;;;29.00;98.20;;;;;;5047127;28;20029;-49
2021/09/11 09:34:10;;;;;;;15.70;8.00;;;30.60;95.10;;;;;;5047106;28;20025;-50
2021/09/11 09:36:40;;;;;;;11.38;7.53;;;31.00;92.70;;;;;;5037225;28;20060;-48
2021/09/11 09:39:09;;;;;;;9.27;7.88;;;32.30;90.00;;;;;;5057922;28;20021;-48
2021/09/11 09:41:52;;;;;;;9.63;8.65;;;32.10;84.10;;;;;;5055008;28;20191;-50
2021/09/11 09:44:19;;;;;;;10.25;7.68;;;31.90;84.30;;;;;;5042240;28;20483;-48
2021/09/11 09:46:47;;;;;;;11.88;8.25;;;31.50;83.50;;;;;;5049520;28;20534;-48
2021/09/11 09:49:18;;;;;;;10.23;8.20;;;30.40;84.10;;;;;;5031992;28;20030;-47
2021/09/11 09:51:45;;;;;;;8.85;7.47;;;29.50;88.10;;;;;;5030724;28;20022;-50
2021/09/11 09:54:13;;;;;;;16.75;10.18;;;29.90;89.10;;;;;;5029054;28;20113;-48
2021/09/11 09:56:39;;;;;;;10.27;9.00;;;30.40;86.40;;;;;;5054035;28;20099;-48
2021/09/11 09:59:05;;;;;;;18.27;10.23;;;30.20;84.00;;;;;;5061874;28;20127;-50
2021/09/11 10:01:30;;;;;;;9.95;8.95;;;29.50;85.50;;;;;;5069017;28;20046;-50
2021/09/11 10:03:56;;;;;;;12.45;9.48;;;29.10;89.10;;;;;;5070071;28;20036;-47
2021/09/11 10:06:29;;;;;;;12.38;10.75;;;29.20;87.90;;;;;;5069688;28;20025;-48
2021/09/11 10:08:58;;;;;;;11.55;9.98;;;29.50;86.70;;;;;;5054991;28;20586;-48
2021/09/11 10:11:38;;;;;;;8.70;7.80;;;30.40;84.10;;;;;;5050932;28;20664;-47
2021/09/11 10:14:12;;;;;;;8.75;7.40;;;31.40;84.40;;;;;;5047769;28;20036;-48
2021/09/11 10:16:43;;;;;;;14.40;9.07;;;32.30;80.70;;;;;;5058362;28;20046;-47
2021/09/11 10:19:20;;;;;;;9.43;8.10;;;32.50;77.00;;;;;;5052603;28;20386;-48
2021/09/11 10:21:48;;;;;;;8.75;7.82;;;32.00;77.60;;;;;;5068375;28;20032;-47
2021/09/11 10:24:14;;;;;;;8.80;7.90;;;31.50;78.00;;;;;;5069393;28;20353;-47
2021/09/11 10:27:09;;;;;;;12.68;9.25;;;31.40;77.00;;;;;;5069295;28;20103;-50
2021/09/11 10:29:54;;;;;;;13.07;8.75;;;31.20;76.50;;;;;;5070410;28;20558;-49
2021/09/11 10:32:28;;;;;;;9.70;8.25;;;30.50;81.80;;;;;;5070544;28;20581;-49
2021/09/11 10:35:00;;;;;;;14.23;10.18;;;31.40;79.40;;;;;;5070289;28;20021;-47
2021/09/11 10:37:47;;;;;;;9.07;8.02;;;30.80;78.90;;;;;;5066609;28;20059;-47
2021/09/11 10:40:26;;;;;;;10.00;8.95;;;30.00;80.60;;;;;;5055161;28;20120;-47
2021/09/11 10:43:09;;;;;;;12.40;8.73;;;29.30;83.90;;;;;;5070246;28;20025;-47
2021/09/11 10:45:53;;;;;;;14.05;10.32;;;28.20;87.60;;;;;;5069896;28;20043;-46
2021/09/11 10:48:39;;;;;;;15.23;10.50;;;27.40;88.60;;;;;;5069656;28;20429;-46
2021/09/11 10:51:11;;;;;;;12.65;10.27;;;26.60;91.50;;;;;;5070047;28;20016;-46
2021/09/11 10:53:36;;;;;;;11.88;9.25;;;26.40;91.50;;;;;;5069704;28;20094;-47
2021/09/11 10:56:21;;;;;;;11.88;9.85;;;26.00;92.90;;;;;;5068731;28;20028;-46
2021/09/11 10:59:16;;;;;;;12.65;10.20;;;25.50;94.20;;;;;;5041250;28;20021;-48
2021/09/11 11:02:10;;;;;;;17.15;12.68;;;25.00;94.40;;;;;;5045471;28;20124;-47
2021/09/11 11:04:47;;;;;;;17.73;13.60;;;24.60;95.80;;;;;;5049258;28;20228;-47
2021/09/11 11:07:19;;;;;;;16.13;12.68;;;24.20;97.20;;;;;;5050521;28;20090;-47
2021/09/11 11:09:58;;;;;;;13.90;11.75;;;23.90;98.80;;;;;;5061024;28;20020;-47
2021/09/11 11:12:29;;;;;;;18.27;13.85;;;23.50;99.90;;;;;;5068160;28;20048;-46
2021/09/11 11:15:23;;;;;;;17.55;13.57;;;23.50;99.90;;;;;;5069201;28;20379;-48
2021/09/11 11:17:50;;;;;;;17.85;13.30;;;23.70;99.90;;;;;;5064994;28;20036;-48
2021/09/11 11:20:22;;;;;;;13.32;10.77;;;25.10;99.40;;;;;;5067476;28;20056;-47
2021/09/11 11:22:48;;;;;;;15.70;10.85;;;26.00;98.60;;;;;;5068520;28;20033;-49
2021/09/11 11:25:26;;;;;;;11.68;10.43;;;27.10;95.70;;;;;;5068174;28;20052;-50
2021/09/11 11:27:52;;;;;;;12.02;9.07;;;27.50;94.40;;;;;;5068266;28;20071;-46
2021/09/11 11:30:20;;;;;;;10.75;8.57;;;28.20;93.00;;;;;;5068253;28;20068;-49
2021/09/11 11:32:46;;;;;;;13.60;8.80;;;29.00;91.70;;;;;;5039602;28;20070;-47
2021/09/11 11:35:14;;;;;;;11.05;9.00;;;30.10;89.90;;;;;;5037445;28;20018;-49
2021/09/11 11:37:40;;;;;;;8.75;7.78;;;30.90;85.70;;;;;;5038692;28;20128;-50
2021/09/11 11:40:09;;;;;;;11.27;8.07;;;31.90;86.40;;;;;;5039197;28;20348;-50
2021/09/11 11:42:35;;;;;;;8.77;6.35;;;32.30;79.30;;;;;;5027439;28;20033;-47
2021/09/11 11:45:45;;;;;;;8.63;6.72;;;32.40;77.30;;;;;;5044711;28;20151;-48
2021/09/11 11:48:16;;;;;;;8.68;6.50;;;32.60;75.60;;;;;;4944995;29;20432;-47
2021/09/11 11:50:44;;;;;;;9.00;6.97;;;31.60;75.10;;;;;;4947377;29;20039;-48
2021/09/11 11:53:13;;;;;;;8.70;7.82;;;31.70;74.40;;;;;;4992478;28;20037;-46
2021/09/11 11:55:52;;;;;;;8.93;7.25;;;31.10;76.90;;;;;;5044385;28;20509;-48
2021/09/11 11:58:27;;;;;;;7.85;7.05;;;31.60;79.30;;;;;;5047447;28;20029;-48
2021/09/11 12:01:33;;;;;;;6.90;6.20;;;31.80;77.20;;;;;;5045171;28;20036;-46
2021/09/11 12:03:58;;;;;;;7.80;6.68;;;32.00;74.30;;;;;;5018530;28;20085;-49
2021/09/11 12:06:28;;;;;;;7.20;6.43;;;31.80;74.00;;;;;;5047104;28;20374;-48
2021/09/11 12:09:00;;;;;;;8.15;5.95;;;31.50;73.60;;;;;;5041961;28;20483;-47
2021/09/11 12:11:27;;;;;;;7.32;6.43;;;30.80;73.10;;;;;;5053965;28;20037;-48
2021/09/11 12:13:59;;;;;;;8.68;6.85;;;30.60;75.20;;;;;;5048354;28;20025;-50
2021/09/11 12:16:26;;;;;;;9.27;7.88;;;30.60;71.30;;;;;;5047675;28;20028;-49
2021/09/11 12:18:52;;;;;;;8.60;6.97;;;29.70;73.80;;;;;;5048413;28;20547;-49
2021/09/11 12:21:18;;;;;;;10.07;7.30;;;29.30;74.40;;;;;;5048336;28;20021;-50
2021/09/11 12:23:49;;;;;;;9.18;7.75;;;28.60;77.60;;;;;;5047767;28;20040;-50
2021/09/11 12:26:15;;;;;;;9.38;8.38;;;28.00;80.20;;;;;;5047974;28;20040;-47
2021/09/11 12:28:46;;;;;;;11.45;9.70;;;27.70;81.60;;;;;;5047244;28;20021;-48
2021/09/11 12:31:18;;;;;;;8.75;7.85;;;27.90;81.50;;;;;;5048347;28;20033;-47
2021/09/11 12:33:43;;;;;;;11.45;8.40;;;28.40;82.30;;;;;;5047970;28;20082;-48